createdAt,value
2019-01-27T00:00:48.074Z,31.87
2019-01-27T00:03:18.186Z,40.73
2019-01-27T00:05:48.294Z,28.10
2019-01-27T00:08:18.323Z,41.17
2019-01-27T00:10:48.353Z,34.43
2019-01-27T00:13:18.312Z,34.17
2019-01-27T00:15:48.530Z,39.90
2019-01-27T00:18:18.746Z,34.93
2019-01-27T00:20:48.768Z,34.20
2019-01-27T00:23:18.685Z,37.80
2019-01-27T00:25:48.657Z,32.77
2019-01-27T00:28:18.680Z,34.53
2019-01-27T00:30:48.585Z,34.33
2019-01-27T00:33:18.747Z,35.10
2019-01-27T00:35:48.745Z,31.50
2019-01-27T00:38:18.948Z,36.47
2019-01-27T00:40:48.838Z,34.20
2019-01-27T00:43:18.766Z,32.33
2019-01-27T00:45:49.135Z,32.87
2019-01-27T00:48:19.289Z,30.20
2019-01-27T00:50:49.302Z,32.37
2019-01-27T00:53:19.211Z,28.97
2019-01-27T00:55:49.427Z,30.70
2019-01-27T00:58:19.442Z,30.73
2019-01-27T01:00:49.422Z,18.63
2019-01-27T01:03:19.452Z,26.17
2019-01-27T01:05:49.600Z,34.50
2019-01-27T01:08:19.965Z,20.83
2019-01-27T01:10:49.833Z,23.17
2019-01-27T01:13:20.010Z,23.50
2019-01-27T01:15:50.023Z,36.40
2019-01-27T01:18:20.422Z,28.00
2019-01-27T01:20:50.414Z,24.50
2019-01-27T01:23:20.742Z,24.77
2019-01-27T01:25:50.994Z,29.43
2019-01-27T01:28:21.045Z,20.80
2019-01-27T01:30:51.190Z,28.67
2019-01-27T01:33:21.119Z,23.47
2019-01-27T01:35:51.170Z,27.57
2019-01-27T01:38:21.812Z,13.67
2019-01-27T01:40:52.041Z,25.47
2019-01-27T01:43:21.940Z,17.37
2019-01-27T01:45:52.616Z,24.80
2019-01-27T01:48:22.652Z,24.90
2019-01-27T01:50:52.787Z,28.77
2019-01-27T01:53:22.747Z,21.53
2019-01-27T01:55:52.726Z,29.63
2019-01-27T01:58:22.685Z,28.50
2019-01-27T02:00:52.624Z,21.10
2019-01-27T02:03:22.913Z,22.70
2019-01-27T02:05:52.844Z,21.50
2019-01-27T02:08:22.868Z,26.20
2019-01-27T02:10:52.834Z,27.07
2019-01-27T02:13:22.745Z,26.77
2019-01-27T02:16:10.611Z,23.43
2019-01-27T02:18:41.544Z,23.07
2019-01-27T02:21:11.591Z,22.63
2019-01-27T02:23:41.654Z,24.73
2019-01-27T02:26:11.983Z,22.30
2019-01-27T02:28:42.360Z,28.43
2019-01-27T02:31:12.325Z,20.53
2019-01-27T02:33:42.268Z,25.67
2019-01-27T02:36:12.178Z,22.97
2019-01-27T02:38:42.210Z,26.57
2019-01-27T02:41:12.459Z,21.20
2019-01-27T02:43:42.408Z,23.23
2019-01-27T02:46:12.338Z,22.50
2019-01-27T02:48:42.717Z,25.40
2019-01-27T02:51:12.602Z,22.17
2019-01-27T02:53:42.960Z,24.93
2019-01-27T02:56:12.980Z,21.83
2019-01-27T02:58:42.965Z,28.80
2019-01-27T03:01:13.320Z,19.03
2019-01-27T03:03:43.441Z,17.07
2019-01-27T03:06:36.987Z,25.67
2019-01-27T03:09:13.738Z,20.37
2019-01-27T03:11:52.402Z,23.27
2019-01-27T03:14:23.017Z,23.43
2019-01-27T03:16:54.282Z,24.77
2019-01-27T03:19:24.543Z,18.93
2019-01-27T03:21:54.860Z,24.90
2019-01-27T03:24:24.839Z,19.33
2019-01-27T03:26:55.388Z,17.17
2019-01-27T03:29:25.496Z,18.63
2019-01-27T03:31:55.944Z,20.03
2019-01-27T03:34:26.022Z,19.67
2019-01-27T03:36:56.328Z,20.20
2019-01-27T03:39:26.217Z,26.37
2019-01-27T03:41:56.381Z,25.17
2019-01-27T03:44:26.437Z,26.67
2019-01-27T03:46:56.374Z,15.40
2019-01-27T03:49:26.475Z,17.73
2019-01-27T03:51:56.768Z,18.10
2019-01-27T03:54:26.692Z,15.80
2019-01-27T03:56:56.582Z,12.77
2019-01-27T03:59:26.486Z,13.17
2019-01-27T04:01:56.397Z,12.60
2019-01-27T04:04:26.500Z,12.70
2019-01-27T04:06:56.468Z,12.17
2019-01-27T04:09:26.442Z,13.93
2019-01-27T04:11:56.347Z,12.20
2019-01-27T04:14:26.520Z,12.97
2019-01-27T04:16:56.886Z,12.00
2019-01-27T04:19:26.987Z,12.07
2019-01-27T04:21:57.187Z,12.30
2019-01-27T04:24:27.553Z,12.00
2019-01-27T04:26:57.464Z,10.47
2019-01-27T04:29:27.339Z,12.13
2019-01-27T04:31:57.359Z,11.23
2019-01-27T04:34:27.398Z,12.47
2019-01-27T04:36:57.282Z,11.33
2019-01-27T04:39:27.194Z,12.60
2019-01-27T04:41:57.097Z,12.03
2019-01-27T04:44:27.228Z,11.63
2019-01-27T04:46:57.161Z,12.30
2019-01-27T04:49:27.034Z,11.13
2019-01-27T04:51:57.263Z,11.13
2019-01-27T04:54:27.232Z,11.37
2019-01-27T04:56:57.201Z,11.43
2019-01-27T04:59:27.107Z,10.70
2019-01-27T05:01:57.053Z,11.13
2019-01-27T05:04:33.520Z,10.70
2019-01-27T05:07:03.529Z,11.30
2019-01-27T05:09:33.627Z,12.37
2019-01-27T05:12:03.988Z,11.33
2019-01-27T05:14:33.888Z,12.03
2019-01-27T05:17:04.179Z,11.00
2019-01-27T05:19:34.050Z,10.43
2019-01-27T05:22:04.082Z,10.77
2019-01-27T05:24:33.964Z,10.40
2019-01-27T05:27:03.963Z,11.60
2019-01-27T05:29:33.826Z,10.40
2019-01-27T05:32:04.163Z,11.00
2019-01-27T05:34:34.052Z,10.80
2019-01-27T05:37:03.978Z,9.70
2019-01-27T05:39:34.075Z,10.37
2019-01-27T05:42:04.380Z,11.10
2019-01-27T05:44:34.261Z,11.13
2019-01-27T05:47:04.159Z,10.67
2019-01-27T05:49:34.056Z,10.63
2019-01-27T05:52:04.416Z,9.83
2019-01-27T05:54:34.293Z,9.80
2019-01-27T05:57:04.184Z,9.70
2019-01-27T05:59:34.402Z,10.10
2019-01-27T06:02:04.703Z,10.23
2019-01-27T06:04:34.597Z,10.47
2019-01-27T06:07:04.669Z,9.83
2019-01-27T06:09:34.573Z,10.40
2019-01-27T06:12:04.661Z,10.50
2019-01-27T06:14:34.569Z,9.97
2019-01-27T06:17:04.795Z,10.30
2019-01-27T06:19:34.683Z,9.93
2019-01-27T06:22:04.747Z,9.10
2019-01-27T06:24:34.623Z,9.53
2019-01-27T06:27:04.787Z,9.47
2019-01-27T06:29:34.711Z,9.73
2019-01-27T06:32:04.686Z,8.80
2019-01-27T06:34:34.563Z,9.20
2019-01-27T06:37:04.490Z,9.03
2019-01-27T06:39:34.470Z,9.93
2019-01-27T06:42:04.420Z,8.83
2019-01-27T06:44:34.313Z,9.43
2019-01-27T06:47:04.527Z,8.50
2019-01-27T06:49:34.630Z,9.10
2019-01-27T06:52:04.668Z,8.50
2019-01-27T06:54:35.090Z,9.10
2019-01-27T06:57:05.490Z,8.43
2019-01-27T06:59:49.265Z,9.27
2019-01-27T07:02:29.554Z,8.27
2019-01-27T07:05:05.643Z,8.20
2019-01-27T07:07:53.234Z,7.20
2019-01-27T07:10:41.164Z,8.37
2019-01-27T07:13:28.416Z,7.63
2019-01-27T07:16:17.565Z,8.30
2019-01-27T07:19:04.225Z,6.57
2019-01-27T07:21:41.598Z,7.10
2019-01-27T07:24:25.146Z,7.40
2019-01-27T07:27:05.756Z,6.90
2019-01-27T07:29:57.691Z,7.13
2019-01-27T07:32:44.568Z,7.30
2019-01-27T07:35:29.399Z,6.83
2019-01-27T07:38:06.916Z,7.17
2019-01-27T07:40:43.508Z,7.10
2019-01-27T07:43:28.969Z,6.87
2019-01-27T07:46:20.810Z,6.53
2019-01-27T07:49:02.798Z,7.50
2019-01-27T07:52:06.763Z,6.67
2019-01-27T07:54:58.704Z,7.20
2019-01-27T07:57:50.703Z,7.50
2019-01-27T08:00:41.051Z,7.03
2019-01-27T08:03:48.183Z,7.63
2019-01-27T08:06:43.688Z,7.60
2019-01-27T08:09:31.811Z,7.60
2019-01-27T08:12:15.639Z,7.67
2019-01-27T08:14:56.382Z,7.27
2019-01-27T08:17:39.881Z,7.50
2019-01-27T08:20:23.917Z,7.67
2019-01-27T08:23:01.210Z,7.80
2019-01-27T08:25:59.678Z,6.63
2019-01-27T08:28:55.313Z,7.43
2019-01-27T08:31:44.090Z,7.73
2019-01-27T08:34:36.343Z,7.73
2019-01-27T08:37:14.776Z,7.67
2019-01-27T08:39:52.527Z,7.27
2019-01-27T08:42:35.655Z,7.07
2019-01-27T08:45:28.672Z,7.10
2019-01-27T08:48:01.313Z,6.70
2019-01-27T08:50:30.470Z,6.90
2019-01-27T08:53:00.465Z,6.57
2019-01-27T08:55:30.358Z,6.53
2019-01-27T08:58:03.307Z,5.90
2019-01-27T09:00:38.005Z,6.20
2019-01-27T09:03:13.645Z,5.70
2019-01-27T09:05:51.672Z,6.60
2019-01-27T09:08:26.327Z,5.60
2019-01-27T09:11:14.084Z,5.43
2019-01-27T09:13:59.421Z,5.90
2019-01-27T09:16:49.567Z,6.00
2019-01-27T09:19:28.591Z,5.53
2019-01-27T09:22:10.307Z,6.23
2019-01-27T09:24:58.121Z,5.97
2019-01-27T09:27:33.341Z,5.17
2019-01-27T09:30:25.198Z,5.90
2019-01-27T09:33:03.477Z,5.23
2019-01-27T09:35:54.346Z,4.97
2019-01-27T09:38:42.009Z,4.90
2019-01-27T09:41:18.542Z,4.90
2019-01-27T09:44:13.157Z,5.40
2019-01-27T09:47:07.381Z,4.47
2019-01-27T09:50:11.367Z,4.90
2019-01-27T09:53:04.261Z,4.53
2019-01-27T09:55:53.247Z,5.23
2019-01-27T09:58:30.716Z,4.43
2019-01-27T10:01:09.866Z,4.20
2019-01-27T10:03:59.274Z,4.50
2019-01-27T10:06:39.616Z,4.83
2019-01-27T10:09:30.542Z,4.53
2019-01-27T10:12:09.579Z,4.50
2019-01-27T10:14:46.174Z,4.23
2019-01-27T10:17:30.152Z,4.33
2019-01-27T10:20:17.733Z,3.93
2019-01-27T10:23:10.351Z,4.07
2019-01-27T10:25:50.225Z,4.13
2019-01-27T10:28:28.025Z,3.93
2019-01-27T10:31:07.255Z,4.60
2019-01-27T10:33:51.068Z,4.13
2019-01-27T10:36:29.723Z,4.27
2019-01-27T10:39:08.308Z,3.60
2019-01-27T10:41:46.469Z,3.80
2019-01-27T10:44:33.155Z,4.33
2019-01-27T10:47:09.566Z,4.10
2019-01-27T10:49:48.077Z,2.77
2019-01-27T10:52:37.500Z,3.20
2019-01-27T10:55:15.334Z,3.83
2019-01-27T10:57:56.449Z,3.63
2019-01-27T11:00:48.928Z,4.20
2019-01-27T11:03:31.822Z,4.43
2019-01-27T11:06:23.956Z,4.07
2019-01-27T11:09:16.435Z,4.60
2019-01-27T11:12:09.216Z,3.80
2019-01-27T11:15:04.472Z,3.57
2019-01-27T11:17:51.868Z,3.83
2019-01-27T11:20:50.235Z,3.40
2019-01-27T11:23:30.412Z,3.73
2019-01-27T11:26:18.144Z,3.93
2019-01-27T11:29:05.965Z,4.13
2019-01-27T11:31:56.791Z,3.93
2019-01-27T11:34:44.491Z,4.30
2019-01-27T11:37:29.872Z,4.73
2019-01-27T11:40:10.156Z,3.97
2019-01-27T11:42:57.344Z,5.30
2019-01-27T11:45:39.864Z,5.13
2019-01-27T11:48:14.369Z,3.73
2019-01-27T11:50:48.911Z,4.53
2019-01-27T11:53:19.079Z,4.17
2019-01-27T11:55:49.075Z,4.73
2019-01-27T11:58:19.104Z,4.20
2019-01-27T12:00:53.178Z,4.10
2019-01-27T12:03:23.427Z,4.50
2019-01-27T12:05:53.800Z,4.30
2019-01-27T12:08:23.755Z,3.80
2019-01-27T12:10:53.857Z,3.70
2019-01-27T12:13:24.864Z,3.57
2019-01-27T12:15:54.754Z,3.40
2019-01-27T12:18:24.953Z,4.20
2019-01-27T12:20:55.076Z,4.30
2019-01-27T12:23:25.092Z,5.23
2019-01-27T12:25:55.140Z,3.40
2019-01-27T12:28:25.530Z,3.40
2019-01-27T12:30:55.677Z,3.80
2019-01-27T12:33:25.547Z,3.87
2019-01-27T12:35:56.291Z,4.27
2019-01-27T12:38:26.399Z,4.23
2019-01-27T12:40:56.581Z,3.63
2019-01-27T12:43:27.089Z,3.80
2019-01-27T12:45:57.039Z,3.53
2019-01-27T12:48:28.671Z,3.90
2019-01-27T12:51:08.263Z,3.60
2019-01-27T12:53:38.175Z,4.10
2019-01-27T12:56:08.264Z,3.20
2019-01-27T12:58:38.160Z,3.87
2019-01-27T13:01:13.466Z,3.60
2019-01-27T13:03:43.416Z,4.47
2019-01-27T13:06:13.453Z,3.60
2019-01-27T13:08:43.476Z,3.63
2019-01-27T13:11:13.652Z,3.67
2019-01-27T13:13:43.787Z,3.80
2019-01-27T13:16:13.742Z,4.37
2019-01-27T13:18:43.646Z,3.47
2019-01-27T13:21:13.512Z,4.10
2019-01-27T13:23:43.489Z,4.13
2019-01-27T13:26:13.430Z,4.40
2019-01-27T13:28:43.739Z,3.40
2019-01-27T13:31:13.646Z,3.60
2019-01-27T13:33:43.825Z,6.80
2019-01-27T13:36:13.770Z,4.60
2019-01-27T13:38:50.822Z,3.97
2019-01-27T13:41:16.052Z,4.10
2019-01-27T13:43:45.925Z,3.70
2019-01-27T13:46:16.029Z,3.63
2019-01-27T13:48:45.903Z,4.03
2019-01-27T13:51:16.143Z,4.17
2019-01-27T13:53:46.253Z,4.20
2019-01-27T13:56:16.161Z,4.40
2019-01-27T13:58:46.170Z,4.00
2019-01-27T14:01:16.729Z,3.67
2019-01-27T14:03:46.923Z,4.10
2019-01-27T14:06:17.048Z,4.03
2019-01-27T14:08:47.007Z,3.53
2019-01-27T14:11:17.033Z,3.23
2019-01-27T14:13:46.926Z,3.30
2019-01-27T14:16:16.983Z,2.73
2019-01-27T14:18:47.004Z,3.10
2019-01-27T14:21:16.912Z,2.90
2019-01-27T14:23:47.344Z,3.20
2019-01-27T14:26:17.234Z,2.93
2019-01-27T14:28:47.527Z,3.07
2019-01-27T14:31:17.483Z,2.70
2019-01-27T14:33:47.687Z,2.93
2019-01-27T14:36:17.631Z,2.90
2019-01-27T14:38:47.662Z,2.87
2019-01-27T14:41:17.678Z,3.10
2019-01-27T14:43:47.830Z,2.97
2019-01-27T14:46:17.697Z,2.80
2019-01-27T14:48:47.582Z,2.80
2019-01-27T14:51:17.793Z,2.60
2019-01-27T14:53:48.027Z,2.90
2019-01-27T14:56:18.044Z,2.80
2019-01-27T14:58:48.009Z,2.80
2019-01-27T15:01:18.184Z,3.13
2019-01-27T15:03:48.117Z,2.93
2019-01-27T15:06:18.029Z,2.80
2019-01-27T15:08:48.340Z,2.67
2019-01-27T15:11:18.332Z,3.37
2019-01-27T15:13:48.537Z,3.77
2019-01-27T15:16:18.569Z,3.90
2019-01-27T15:18:48.490Z,3.60
2019-01-27T15:21:23.950Z,3.47
2019-01-27T15:23:54.138Z,3.43
2019-01-27T15:26:24.067Z,3.40
2019-01-27T15:28:54.154Z,3.23
2019-01-27T15:31:24.045Z,3.30
2019-01-27T15:33:53.923Z,3.27
2019-01-27T15:36:23.937Z,3.77
2019-01-27T15:38:53.835Z,3.87
2019-01-27T15:41:23.735Z,3.70
2019-01-27T15:43:53.640Z,2.67
2019-01-27T15:46:23.597Z,2.70
2019-01-27T15:48:53.907Z,2.90
2019-01-27T15:51:24.011Z,2.90
2019-01-27T15:53:53.896Z,3.00
2019-01-27T15:56:23.804Z,2.50
2019-01-27T15:58:53.676Z,3.20
2019-01-27T16:01:23.929Z,3.07
2019-01-27T16:03:53.804Z,3.00
2019-01-27T16:06:23.727Z,3.30
2019-01-27T16:08:53.837Z,3.20
2019-01-27T16:11:24.038Z,3.37
2019-01-27T16:13:54.059Z,3.47
2019-01-27T16:16:23.953Z,3.10
2019-01-27T16:18:58.874Z,3.33
2019-01-27T16:21:25.490Z,3.30
2019-01-27T16:23:57.940Z,3.27
2019-01-27T16:26:27.915Z,3.37
2019-01-27T16:28:58.132Z,3.40
2019-01-27T16:31:43.866Z,3.07
2019-01-27T16:34:18.868Z,34.73
2019-01-27T16:36:48.751Z,11.10
2019-01-27T16:39:18.742Z,5.63
2019-01-27T16:41:48.716Z,4.27
2019-01-27T16:44:18.703Z,3.60
2019-01-27T16:46:48.630Z,3.40
2019-01-27T16:49:19.492Z,3.83
2019-01-27T16:51:50.016Z,3.83
2019-01-27T16:54:20.639Z,3.80
2019-01-27T16:56:50.534Z,4.10
2019-01-27T16:59:20.744Z,4.27
2019-01-27T17:01:50.663Z,3.50
2019-01-27T17:04:20.563Z,4.73
2019-01-27T17:06:51.111Z,8.80
2019-01-27T17:09:21.235Z,7.47
2019-01-27T17:11:51.805Z,4.07
2019-01-27T17:14:21.746Z,3.97
2019-01-27T17:16:51.740Z,4.70
2019-01-27T17:19:22.868Z,3.67
2019-01-27T17:21:53.048Z,3.70
2019-01-27T17:24:23.918Z,3.67
2019-01-27T17:26:54.292Z,3.60
2019-01-27T17:29:24.236Z,3.90
2019-01-27T17:31:54.159Z,4.57
2019-01-27T17:34:24.123Z,4.07
2019-01-27T17:36:54.025Z,3.90
2019-01-27T17:39:23.955Z,3.20
2019-01-27T17:41:53.846Z,3.77
2019-01-27T17:44:23.941Z,3.80
2019-01-27T17:46:55.032Z,5.10
2019-01-27T17:49:24.939Z,4.60
2019-01-27T17:51:55.217Z,3.70
2019-01-27T17:54:26.324Z,3.73
2019-01-27T17:57:03.360Z,3.87
2019-01-27T17:59:38.633Z,4.30
2019-01-27T18:02:25.694Z,4.00
2019-01-27T18:05:04.778Z,3.33
2019-01-27T18:07:54.821Z,4.07
2019-01-27T18:10:35.972Z,3.77
2019-01-27T18:13:10.672Z,4.17
2019-01-27T18:15:40.755Z,4.30
2019-01-27T18:18:10.848Z,3.80
2019-01-27T18:20:41.096Z,4.03
2019-01-27T18:23:11.063Z,3.33
2019-01-27T18:25:40.987Z,3.80
2019-01-27T18:28:10.958Z,3.80
2019-01-27T18:30:41.026Z,3.90
2019-01-27T18:33:10.975Z,3.33
2019-01-27T18:35:40.897Z,4.03
2019-01-27T18:38:11.438Z,3.97
2019-01-27T18:40:41.380Z,3.60
2019-01-27T18:43:11.456Z,3.97
2019-01-27T18:45:42.028Z,3.60
2019-01-27T18:48:11.893Z,3.80
2019-01-27T18:50:41.842Z,5.10
2019-01-27T18:53:31.454Z,4.63
2019-01-27T18:56:13.221Z,4.90
2019-01-27T18:59:01.658Z,13.07
2019-01-27T19:01:57.510Z,14.57
2019-01-27T19:04:52.299Z,18.83
2019-01-27T19:07:28.884Z,11.50
2019-01-27T19:10:20.758Z,8.90
2019-01-27T19:13:22.025Z,5.17
2019-01-27T19:16:03.546Z,4.70
2019-01-27T19:18:51.117Z,4.37
2019-01-27T19:21:54.659Z,4.73
2019-01-27T19:24:58.074Z,3.60
2019-01-27T19:27:47.022Z,3.67
2019-01-27T19:30:29.824Z,3.90
2019-01-27T19:33:27.929Z,3.37
2019-01-27T19:36:11.595Z,3.63
2019-01-27T19:39:13.625Z,8.87
2019-01-27T19:41:52.825Z,15.70
2019-01-27T19:44:39.421Z,6.00
2019-01-27T19:47:31.941Z,4.20
2019-01-27T19:50:13.443Z,4.60
2019-01-27T19:53:08.443Z,8.73
2019-01-27T19:55:56.646Z,10.83
2019-01-27T19:58:48.677Z,12.97
2019-01-27T20:01:25.831Z,7.10
2019-01-27T20:04:18.101Z,36.77
2019-01-27T20:06:56.818Z,31.13
2019-01-27T20:09:34.414Z,7.00
2019-01-27T20:12:22.965Z,7.90
2019-01-27T20:15:13.366Z,11.77
2019-01-27T20:18:00.472Z,5.20
2019-01-27T20:20:50.374Z,4.30
2019-01-27T20:23:32.549Z,3.77
2019-01-27T20:26:22.023Z,5.20
2019-01-27T20:29:13.925Z,13.27
2019-01-27T20:31:59.735Z,9.03
2019-01-27T20:34:54.709Z,4.10
2019-01-27T20:37:37.288Z,4.10
2019-01-27T20:40:31.929Z,3.50
2019-01-27T20:43:13.503Z,5.67
2019-01-27T20:45:52.035Z,5.30
2019-01-27T20:49:00.562Z,7.37
2019-01-27T20:51:36.779Z,12.47
2019-01-27T20:54:18.129Z,9.67
2019-01-27T20:57:05.888Z,5.43
2019-01-27T21:00:01.719Z,3.97
2019-01-27T21:02:51.233Z,4.47
2019-01-27T21:05:46.835Z,3.83
2019-01-27T21:08:30.372Z,4.10
2019-01-27T21:11:26.060Z,4.10
2019-01-27T21:14:14.946Z,3.80
2019-01-27T21:16:56.417Z,4.03
2019-01-27T21:19:51.181Z,3.90
2019-01-27T21:22:23.946Z,5.33
2019-01-27T21:24:55.190Z,3.53
2019-01-27T21:27:26.069Z,3.67
2019-01-27T21:29:56.621Z,4.10
2019-01-27T21:32:27.519Z,4.40
2019-01-27T21:34:58.318Z,3.80
2019-01-27T21:37:28.856Z,3.53
2019-01-27T21:39:59.487Z,3.97
2019-01-27T21:42:30.339Z,3.63
2019-01-27T21:45:01.195Z,3.60
2019-01-27T21:47:31.506Z,3.70
2019-01-27T21:50:01.784Z,3.30
2019-01-27T21:52:32.750Z,3.30
2019-01-27T21:55:03.555Z,4.00
2019-01-27T21:57:33.458Z,3.80
2019-01-27T22:00:03.710Z,3.90
2019-01-27T22:02:34.974Z,3.87
2019-01-27T22:05:07.030Z,4.10
2019-01-27T22:07:38.443Z,3.63
2019-01-27T22:10:11.673Z,3.90
2019-01-27T22:12:43.573Z,3.70
2019-01-27T22:15:14.149Z,4.03
2019-01-27T22:17:45.995Z,3.97
2019-01-27T22:20:18.931Z,4.67
2019-01-27T22:22:49.903Z,4.90
2019-01-27T22:25:21.289Z,8.70
2019-01-27T22:27:52.667Z,4.20
2019-01-27T22:30:22.975Z,4.83
2019-01-27T22:32:55.303Z,4.50
2019-01-27T22:35:26.287Z,4.47
2019-01-27T22:38:00.719Z,4.43
2019-01-27T22:40:31.608Z,4.17
2019-01-27T22:43:01.651Z,4.60
2019-01-27T22:45:31.867Z,4.40
2019-01-27T22:48:02.924Z,4.50
2019-01-27T22:50:33.249Z,5.03
2019-01-27T22:53:04.398Z,5.20
2019-01-27T22:55:34.410Z,4.20
2019-01-27T22:58:06.204Z,4.80
2019-01-27T23:01:01.527Z,4.40
2019-01-27T23:03:44.135Z,4.63
2019-01-27T23:06:14.364Z,3.97
2019-01-27T23:08:44.869Z,3.97
2019-01-27T23:11:15.190Z,6.03
2019-01-27T23:13:45.481Z,3.90
2019-01-27T23:16:15.771Z,4.10
2019-01-27T23:18:46.555Z,4.00
2019-01-27T23:21:16.920Z,4.00
2019-01-27T23:23:46.821Z,3.90
2019-01-27T23:26:16.715Z,4.60
2019-01-27T23:28:46.911Z,4.23
2019-01-27T23:31:17.080Z,4.07
2019-01-27T23:33:47.034Z,4.67
2019-01-27T23:36:17.086Z,4.10
2019-01-27T23:38:46.983Z,4.40
2019-01-27T23:41:16.906Z,4.50
2019-01-27T23:43:46.777Z,3.63
2019-01-27T23:46:16.665Z,4.13
2019-01-27T23:48:46.595Z,4.20
2019-01-27T23:51:16.551Z,4.10
2019-01-27T23:53:46.473Z,3.50
2019-01-27T23:56:16.731Z,3.93
2019-01-27T23:58:46.954Z,4.20
